Chambers, Arizona
Current Conditions -  °F | °C
As of 1:53 PM on Monday 24 Nov 2014 (Local Time) from KGUP Reporting Station
Few Clouds Few Clouds  
Wind Chill: 31°   Ceiling: Unl
Heat Index: 41°   Visibility: 10mi
Dew Point:   Wind: 23mph
Humidity: 20%   Direction: 320°NW
Pressure: 30.16"   Gusts: 30mph
Location:  35.19°N, 109.44°W
Report Text: KGUP 242053Z AUTO 32020G26KT 10SM FEW080 05/M17 A3016 RMK AO2 PK WND 35030/2022 SLP246 T00501167 55015
Loading
Personal Weather Stations






























Interactive Weather Map New forecast layout! Learn more

10-Day Weather Forecast

Advertisements
Track Severe Weather on mobile